sensor_id;sensor_type;location;lat;lon;timestamp;pressure;altitude;pressure_sealevel;temperature;humidity
73143;BME280;61343;53.694;9.988;2022-07-29T00:01:45;101801.53;;;13.61;73.96
73143;BME280;61343;53.694;9.988;2022-07-29T00:04:11;101802.59;;;13.54;74.38
73143;BME280;61343;53.694;9.988;2022-07-29T00:06:37;101799.91;;;13.54;74.10
73143;BME280;61343;53.694;9.988;2022-07-29T00:09:02;101801.75;;;13.60;74.04
73143;BME280;61343;53.694;9.988;2022-07-29T00:11:27;101795.53;;;13.59;73.97
73143;BME280;61343;53.694;9.988;2022-07-29T00:13:53;101794.28;;;13.55;74.01
73143;BME280;61343;53.694;9.988;2022-07-29T00:16:18;101800.53;;;13.49;74.28
73143;BME280;61343;53.694;9.988;2022-07-29T00:18:43;101794.94;;;13.51;73.99
73143;BME280;61343;53.694;9.988;2022-07-29T00:21:09;101788.53;;;13.52;74.33
73143;BME280;61343;53.694;9.988;2022-07-29T00:23:34;101785.00;;;13.45;74.31
73143;BME280;61343;53.694;9.988;2022-07-29T00:25:59;101789.13;;;13.40;74.83
73143;BME280;61343;53.694;9.988;2022-07-29T00:28:24;101783.75;;;13.40;74.35
73143;BME280;61343;53.694;9.988;2022-07-29T00:30:50;101783.34;;;13.30;74.55
73143;BME280;61343;53.694;9.988;2022-07-29T00:33:15;101779.22;;;13.34;74.49
73143;BME280;61343;53.694;9.988;2022-07-29T00:35:40;101780.88;;;13.29;74.73
73143;BME280;61343;53.694;9.988;2022-07-29T00:38:12;101778.19;;;13.29;74.49
73143;BME280;61343;53.694;9.988;2022-07-29T00:40:38;101784.78;;;13.26;74.90
73143;BME280;61343;53.694;9.988;2022-07-29T00:43:04;101782.94;;;13.27;74.94
73143;BME280;61343;53.694;9.988;2022-07-29T00:45:29;101784.38;;;13.23;74.89
73143;BME280;61343;53.694;9.988;2022-07-29T00:47:55;101777.78;;;13.25;74.50
73143;BME280;61343;53.694;9.988;2022-07-29T00:50:21;101782.09;;;13.20;74.89
73143;BME280;61343;53.694;9.988;2022-07-29T00:52:46;101777.56;;;13.20;74.54
73143;BME280;61343;53.694;9.988;2022-07-29T00:55:14;101783.56;;;13.16;74.81
73143;BME280;61343;53.694;9.988;2022-07-29T00:57:40;101780.22;;;13.14;74.90
73143;BME280;61343;53.694;9.988;2022-07-29T01:00:09;101775.47;;;13.09;74.54
73143;BME280;61343;53.694;9.988;2022-07-29T01:02:35;101774.00;;;13.07;75.00
73143;BME280;61343;53.694;9.988;2022-07-29T01:05:02;101773.16;;;13.06;74.70
73143;BME280;61343;53.694;9.988;2022-07-29T01:07:29;101771.50;;;13.05;74.75
73143;BME280;61343;53.694;9.988;2022-07-29T01:09:55;101773.59;;;13.03;74.56
73143;BME280;61343;53.694;9.988;2022-07-29T01:12:24;101766.13;;;13.05;74.53
73143;BME280;61343;53.694;9.988;2022-07-29T01:14:51;101762.00;;;12.96;74.64
73143;BME280;61343;53.694;9.988;2022-07-29T01:17:27;101760.34;;;12.88;75.24
73143;BME280;61343;53.694;9.988;2022-07-29T01:20:24;101759.09;;;12.91;74.97
73143;BME280;61343;53.694;9.988;2022-07-29T01:28:52;101753.94;;;12.90;74.58
73143;BME280;61343;53.694;9.988;2022-07-29T01:34:49;101754.56;;;12.92;74.43
73143;BME280;61343;53.694;9.988;2022-07-29T01:37:43;101753.31;;;12.94;74.34
73143;BME280;61343;53.694;9.988;2022-07-29T01:40:34;101748.38;;;12.91;74.51
73143;BME280;61343;53.694;9.988;2022-07-29T01:43:09;101739.28;;;12.92;74.13
73143;BME280;61343;53.694;9.988;2022-07-29T01:45:47;101733.28;;;12.97;74.24
73143;BME280;61343;53.694;9.988;2022-07-29T01:50:47;101734.13;;;12.84;73.94
73143;BME280;61343;53.694;9.988;2022-07-29T01:53:20;101731.44;;;12.84;73.82
73143;BME280;61343;53.694;9.988;2022-07-29T01:55:48;101726.06;;;12.84;73.92
73143;BME280;61343;53.694;9.988;2022-07-29T01:58:14;101728.97;;;12.89;73.86
73143;BME280;61343;53.694;9.988;2022-07-29T02:00:44;101724.81;;;12.80;73.95
73143;BME280;61343;53.694;9.988;2022-07-29T02:03:11;101730.19;;;12.80;73.46
73143;BME280;61343;53.694;9.988;2022-07-29T02:05:39;101724.41;;;12.83;73.41
73143;BME280;61343;53.694;9.988;2022-07-29T02:08:06;101721.09;;;12.81;73.91
73143;BME280;61343;53.694;9.988;2022-07-29T02:10:34;101715.94;;;12.79;73.75
73143;BME280;61343;53.694;9.988;2022-07-29T02:13:02;101710.75;;;12.84;73.27
73143;BME280;61343;53.694;9.988;2022-07-29T02:15:31;101714.09;;;12.86;73.51
73143;BME280;61343;53.694;9.988;2022-07-29T02:18:15;101718.22;;;12.89;72.74
73143;BME280;61343;53.694;9.988;2022-07-29T02:20:46;101711.38;;;12.93;73.38
73143;BME280;61343;53.694;9.988;2022-07-29T02:23:14;101712.22;;;12.94;72.97
73143;BME280;61343;53.694;9.988;2022-07-29T02:25:41;101705.41;;;12.98;73.15
73143;BME280;61343;53.694;9.988;2022-07-29T02:28:08;101709.94;;;12.91;73.54
73143;BME280;61343;53.694;9.988;2022-07-29T02:30:36;101704.38;;;12.92;72.83
73143;BME280;61343;53.694;9.988;2022-07-29T02:33:05;101697.56;;;12.96;73.36
73143;BME280;61343;53.694;9.988;2022-07-29T02:35:32;101699.63;;;12.94;73.48
73143;BME280;61343;53.694;9.988;2022-07-29T02:37:57;101701.69;;;12.92;73.06
73143;BME280;61343;53.694;9.988;2022-07-29T02:40:42;101694.88;;;12.96;72.96
73143;BME280;61343;53.694;9.988;2022-07-29T02:43:09;101690.75;;;13.00;72.95
73143;BME280;61343;53.694;9.988;2022-07-29T02:45:35;101696.34;;;12.99;73.30
73143;BME280;61343;53.694;9.988;2022-07-29T02:48:06;101689.72;;;13.01;73.21
73143;BME280;61343;53.694;9.988;2022-07-29T02:50:38;101685.56;;;13.05;72.96
73143;BME280;61343;53.694;9.988;2022-07-29T02:53:14;101687.25;;;13.06;73.16
73143;BME280;61343;53.694;9.988;2022-07-29T02:55:45;101680.63;;;13.02;73.05
73143;BME280;61343;53.694;9.988;2022-07-29T02:58:32;101686.00;;;12.96;73.35
73143;BME280;61343;53.694;9.988;2022-07-29T03:01:03;101682.28;;;12.97;73.38
73143;BME280;61343;53.694;9.988;2022-07-29T03:03:32;101684.75;;;12.98;73.49
73143;BME280;61343;53.694;9.988;2022-07-29T03:06:00;101686.00;;;13.02;73.16
73143;BME280;61343;53.694;9.988;2022-07-29T03:08:27;101684.34;;;13.01;73.36
73143;BME280;61343;53.694;9.988;2022-07-29T03:10:53;101681.88;;;13.06;73.12
73143;BME280;61343;53.694;9.988;2022-07-29T03:13:19;101686.84;;;13.09;72.71
73143;BME280;61343;53.694;9.988;2022-07-29T03:15:45;101682.28;;;13.03;73.22
73143;BME280;61343;53.694;9.988;2022-07-29T03:18:11;101668.84;;;13.03;73.44
73143;BME280;61343;53.694;9.988;2022-07-29T03:20:38;101676.91;;;13.03;73.03
73143;BME280;61343;53.694;9.988;2022-07-29T03:23:03;101678.97;;;13.01;73.48
73143;BME280;61343;53.694;9.988;2022-07-29T03:25:30;101672.34;;;12.91;73.77
73143;BME280;61343;53.694;9.988;2022-07-29T03:27:55;101675.69;;;12.93;73.71
73143;BME280;61343;53.694;9.988;2022-07-29T03:30:22;101675.66;;;12.99;73.79
73143;BME280;61343;53.694;9.988;2022-07-29T03:32:49;101676.06;;;12.96;73.53
73143;BME280;61343;53.694;9.988;2022-07-29T03:35:14;101680.22;;;12.92;73.80
73143;BME280;61343;53.694;9.988;2022-07-29T03:37:41;101684.34;;;12.95;73.92
73143;BME280;61343;53.694;9.988;2022-07-29T03:40:07;101672.78;;;12.94;73.73
73143;BME280;61343;53.694;9.988;2022-07-29T03:42:35;101673.19;;;12.91;73.96
73143;BME280;61343;53.694;9.988;2022-07-29T03:45:06;101672.38;;;12.97;74.20
73143;BME280;61343;53.694;9.988;2022-07-29T03:47:35;101674.44;;;12.95;73.85
73143;BME280;61343;53.694;9.988;2022-07-29T03:50:07;101672.78;;;12.94;73.70
73143;BME280;61343;53.694;9.988;2022-07-29T03:52:34;101674.44;;;12.95;74.03
73143;BME280;61343;53.694;9.988;2022-07-29T03:55:01;101673.00;;;12.93;74.16
73143;BME280;61343;53.694;9.988;2022-07-29T03:57:28;101667.22;;;12.96;74.01
73143;BME280;61343;53.694;9.988;2022-07-29T03:59:55;101672.78;;;12.94;74.00
73143;BME280;61343;53.694;9.988;2022-07-29T04:02:20;101667.41;;;12.94;74.20
73143;BME280;61343;53.694;9.988;2022-07-29T04:04:46;101661.84;;;12.96;74.35
73143;BME280;61343;53.694;9.988;2022-07-29T04:07:13;101669.47;;;12.92;74.62
73143;BME280;61343;53.694;9.988;2022-07-29T04:09:39;101669.47;;;12.92;74.32
73143;BME280;61343;53.694;9.988;2022-07-29T04:12:04;101668.66;;;12.98;74.04
73143;BME280;61343;53.694;9.988;2022-07-29T04:14:31;101664.31;;;12.97;74.43
73143;BME280;61343;53.694;9.988;2022-07-29T04:16:56;101679.41;;;12.98;74.32
73143;BME280;61343;53.694;9.988;2022-07-29T04:19:22;101672.34;;;12.91;74.70
73143;BME280;61343;53.694;9.988;2022-07-29T04:21:48;101671.94;;;13.00;74.40
73143;BME280;61343;53.694;9.988;2022-07-29T04:24:13;101671.53;;;13.03;74.04
73143;BME280;61343;53.694;9.988;2022-07-29T04:26:39;101676.06;;;13.03;74.08
73143;BME280;61343;53.694;9.988;2022-07-29T04:29:04;101676.13;;;13.09;74.22
73143;BME280;61343;53.694;9.988;2022-07-29T04:31:29;101677.31;;;13.07;74.66
73143;BME280;61343;53.694;9.988;2022-07-29T04:33:54;101676.72;;;13.05;74.69
73143;BME280;61343;53.694;9.988;2022-07-29T04:36:20;101669.69;;;13.04;75.32
73143;BME280;61343;53.694;9.988;2022-07-29T04:38:45;101674.66;;;13.07;75.02
73143;BME280;61343;53.694;9.988;2022-07-29T04:41:10;101669.09;;;13.08;73.97
73143;BME280;61343;53.694;9.988;2022-07-29T04:43:36;101677.38;;;13.13;74.44
73143;BME280;61343;53.694;9.988;2022-07-29T04:46:02;101679.41;;;13.11;74.12
73143;BME280;61343;53.694;9.988;2022-07-29T04:48:28;101682.31;;;13.16;74.20
73143;BME280;61343;53.694;9.988;2022-07-29T04:50:53;101683.34;;;13.15;74.41
73143;BME280;61343;53.694;9.988;2022-07-29T04:53:21;101679.22;;;13.13;74.75
73143;BME280;61343;53.694;9.988;2022-07-29T04:55:47;101677.75;;;13.17;74.80
73143;BME280;61343;53.694;9.988;2022-07-29T04:58:12;101678.59;;;13.17;74.62
73143;BME280;61343;53.694;9.988;2022-07-29T05:00:38;101675.28;;;13.15;74.62
73143;BME280;61343;53.694;9.988;2022-07-29T05:03:04;101680.25;;;13.18;74.70
73143;BME280;61343;53.694;9.988;2022-07-29T05:05:29;101676.13;;;13.22;74.71
73143;BME280;61343;53.694;9.988;2022-07-29T05:07:54;101679.41;;;13.24;74.44
73143;BME280;61343;53.694;9.988;2022-07-29T05:10:20;101673.22;;;13.17;74.73
73143;BME280;61343;53.694;9.988;2022-07-29T05:12:45;101667.00;;;13.17;74.97
73143;BME280;61343;53.694;9.988;2022-07-29T05:15:11;101676.31;;;13.21;75.23
73143;BME280;61343;53.694;9.988;2022-07-29T05:17:36;101669.50;;;13.18;75.45
73143;BME280;61343;53.694;9.988;2022-07-29T05:20:02;101669.50;;;13.18;75.70
73143;BME280;61343;53.694;9.988;2022-07-29T05:22:28;101672.38;;;13.23;75.24
73143;BME280;61343;53.694;9.988;2022-07-29T05:24:53;101669.50;;;13.18;75.47
73143;BME280;61343;53.694;9.988;2022-07-29T05:27:18;101674.03;;;13.31;74.95
73143;BME280;61343;53.694;9.988;2022-07-29T05:29:43;101683.13;;;13.36;74.52
73143;BME280;61343;53.694;9.988;2022-07-29T05:32:09;101677.09;;;13.41;74.77
73143;BME280;61343;53.694;9.988;2022-07-29T05:34:34;101685.59;;;13.45;74.66
73143;BME280;61343;53.694;9.988;2022-07-29T05:36:59;101685.16;;;13.48;74.53
73143;BME280;61343;53.694;9.988;2022-07-29T05:39:25;101686.41;;;13.52;74.31
73143;BME280;61343;53.694;9.988;2022-07-29T05:41:50;101695.50;;;13.57;74.51
73143;BME280;61343;53.694;9.988;2022-07-29T05:44:15;101683.91;;;13.70;73.64
73143;BME280;61343;53.694;9.988;2022-07-29T05:46:41;101688.44;;;13.69;73.93
73143;BME280;61343;53.694;9.988;2022-07-29T05:49:06;101696.50;;;13.69;74.51
73143;BME280;61343;53.694;9.988;2022-07-29T05:51:35;101692.56;;;13.72;74.58
73143;BME280;61343;53.694;9.988;2022-07-29T05:54:01;101683.84;;;13.83;74.51
73143;BME280;61343;53.694;9.988;2022-07-29T05:56:27;101681.34;;;13.88;74.12
73143;BME280;61343;53.694;9.988;2022-07-29T05:58:52;101678.19;;;14.04;72.94
73143;BME280;61343;53.694;9.988;2022-07-29T06:01:18;101681.47;;;14.06;73.24
73143;BME280;61343;53.694;9.988;2022-07-29T06:03:43;101691.59;;;14.11;73.17
73143;BME280;61343;53.694;9.988;2022-07-29T06:06:09;101689.06;;;14.22;73.41
73143;BME280;61343;53.694;9.988;2022-07-29T06:08:35;101698.16;;;14.34;73.05
73143;BME280;61343;53.694;9.988;2022-07-29T06:11:01;101695.22;;;14.36;72.94
73143;BME280;61343;53.694;9.988;2022-07-29T06:13:27;101688.97;;;14.48;72.89
73143;BME280;61343;53.694;9.988;2022-07-29T06:15:52;101682.34;;;14.44;73.15
73143;BME280;61343;53.694;9.988;2022-07-29T06:18:17;101687.03;;;14.56;72.48
73143;BME280;61343;53.694;9.988;2022-07-29T06:20:43;101687.25;;;14.54;72.74
73143;BME280;61343;53.694;9.988;2022-07-29T06:23:08;101684.09;;;14.64;72.43
73143;BME280;61343;53.694;9.988;2022-07-29T06:25:35;101675.31;;;14.75;73.15
73143;BME280;61343;53.694;9.988;2022-07-29T06:28:02;101683.78;;;14.78;72.24
73143;BME280;61343;53.694;9.988;2022-07-29T06:30:27;101676.53;;;14.79;72.61
73143;BME280;61343;53.694;9.988;2022-07-29T06:32:53;101683.53;;;14.86;72.19
73143;BME280;61343;53.694;9.988;2022-07-29T06:35:19;101681.97;;;14.97;71.33
73143;BME280;61343;53.694;9.988;2022-07-29T06:37:44;101675.66;;;15.09;71.59
73143;BME280;61343;53.694;9.988;2022-07-29T06:40:10;101683.84;;;15.21;71.59
73143;BME280;61343;53.694;9.988;2022-07-29T06:42:54;101674.72;;;15.22;71.04
73143;BME280;61343;53.694;9.988;2022-07-29T06:45:19;101677.97;;;15.31;71.56
73143;BME280;61343;53.694;9.988;2022-07-29T06:47:45;101674.91;;;15.45;71.15
73143;BME280;61343;53.694;9.988;2022-07-29T06:50:10;101681.84;;;15.59;71.17
73143;BME280;61343;53.694;9.988;2022-07-29T06:52:38;101681.41;;;15.62;71.37
73143;BME280;61343;53.694;9.988;2022-07-29T06:55:04;101683.66;;;15.66;70.28
73143;BME280;61343;53.694;9.988;2022-07-29T06:57:29;101685.44;;;15.72;70.25
73143;BME280;61343;53.694;9.988;2022-07-29T06:59:56;101684.09;;;15.81;69.71
73143;BME280;61343;53.694;9.988;2022-07-29T07:02:21;101686.50;;;15.89;69.81
73143;BME280;61343;53.694;9.988;2022-07-29T07:04:47;101677.66;;;16.00;69.53
73143;BME280;61343;53.694;9.988;2022-07-29T07:07:12;101674.72;;;16.01;70.34
73143;BME280;61343;53.694;9.988;2022-07-29T07:09:37;101675.47;;;16.08;70.02
73143;BME280;61343;53.694;9.988;2022-07-29T07:12:03;101675.09;;;16.05;70.11
73143;BME280;61343;53.694;9.988;2022-07-29T07:14:28;101668.72;;;16.17;69.47
73143;BME280;61343;53.694;9.988;2022-07-29T07:16:53;101676.41;;;16.32;69.22
73143;BME280;61343;53.694;9.988;2022-07-29T07:19:18;101665.28;;;16.40;69.13
73143;BME280;61343;53.694;9.988;2022-07-29T07:21:44;101662.78;;;16.57;69.19
73143;BME280;61343;53.694;9.988;2022-07-29T07:24:09;101665.41;;;16.75;69.26
73143;BME280;61343;53.694;9.988;2022-07-29T07:26:35;101655.72;;;16.86;67.84
73143;BME280;61343;53.694;9.988;2022-07-29T07:29:00;101656.88;;;17.01;67.72
73143;BME280;61343;53.694;9.988;2022-07-29T07:31:25;101665.34;;;17.28;67.87
73143;BME280;61343;53.694;9.988;2022-07-29T07:33:50;101656.41;;;17.39;66.63
73143;BME280;61343;53.694;9.988;2022-07-29T07:36:17;101659.81;;;17.69;66.13
73143;BME280;61343;53.694;9.988;2022-07-29T07:38:42;101650.34;;;17.95;65.87
73143;BME280;61343;53.694;9.988;2022-07-29T07:41:07;101654.75;;;18.13;64.35
73143;BME280;61343;53.694;9.988;2022-07-29T07:43:32;101653.22;;;18.17;64.03
73143;BME280;61343;53.694;9.988;2022-07-29T07:45:58;101650.41;;;18.12;64.10
73143;BME280;61343;53.694;9.988;2022-07-29T07:48:23;101649.50;;;18.34;62.34
73143;BME280;61343;53.694;9.988;2022-07-29T07:50:48;101647.28;;;18.48;62.49
73143;BME280;61343;53.694;9.988;2022-07-29T07:53:15;101654.94;;;18.63;63.04
73143;BME280;61343;53.694;9.988;2022-07-29T07:55:42;101654.38;;;18.77;61.78
73143;BME280;61343;53.694;9.988;2022-07-29T07:58:08;101652.16;;;18.74;61.36
73143;BME280;61343;53.694;9.988;2022-07-29T08:00:33;101653.28;;;18.78;62.00
73143;BME280;61343;53.694;9.988;2022-07-29T08:02:59;101646.31;;;18.82;61.68
73143;BME280;61343;53.694;9.988;2022-07-29T08:05:24;101642.53;;;18.83;60.89
73143;BME280;61343;53.694;9.988;2022-07-29T08:07:49;101647.47;;;18.86;61.67
73143;BME280;61343;53.694;9.988;2022-07-29T08:10:16;101643.75;;;18.92;60.60
73143;BME280;61343;53.694;9.988;2022-07-29T08:13:05;101641.03;;;18.76;60.91
73143;BME280;61343;53.694;9.988;2022-07-29T08:15:31;101650.69;;;18.83;60.79
73143;BME280;61343;53.694;9.988;2022-07-29T08:17:57;101649.03;;;18.82;61.20
73143;BME280;61343;53.694;9.988;2022-07-29T08:20:22;101638.41;;;18.81;61.27
73143;BME280;61343;53.694;9.988;2022-07-29T08:22:47;101647.88;;;18.95;61.26
73143;BME280;61343;53.694;9.988;2022-07-29T08:25:13;101643.09;;;19.02;60.76
73143;BME280;61343;53.694;9.988;2022-07-29T08:27:38;101645.66;;;19.09;60.79
73143;BME280;61343;53.694;9.988;2022-07-29T08:30:04;101646.41;;;19.04;60.79
73143;BME280;61343;53.694;9.988;2022-07-29T08:32:29;101647.94;;;19.17;60.43
73143;BME280;61343;53.694;9.988;2022-07-29T08:34:56;101648.44;;;19.30;59.94
73143;BME280;61343;53.694;9.988;2022-07-29T08:37:21;101648.25;;;19.20;60.24
73143;BME280;61343;53.694;9.988;2022-07-29T08:39:46;101652.53;;;19.33;59.76
73143;BME280;61343;53.694;9.988;2022-07-29T08:42:12;101652.34;;;19.56;59.15
73143;BME280;61343;53.694;9.988;2022-07-29T08:44:38;101653.38;;;19.72;59.55
73143;BME280;61343;53.694;9.988;2022-07-29T08:47:03;101649.19;;;19.64;58.64
73143;BME280;61343;53.694;9.988;2022-07-29T08:49:29;101651.34;;;19.62;57.86
73143;BME280;61343;53.694;9.988;2022-07-29T08:51:55;101648.00;;;19.77;57.12
73143;BME280;61343;53.694;9.988;2022-07-29T08:54:22;101650.91;;;19.92;57.06
73143;BME280;61343;53.694;9.988;2022-07-29T08:56:49;101647.22;;;20.03;55.50
73143;BME280;61343;53.694;9.988;2022-07-29T08:59:16;101652.66;;;20.25;56.44
73143;BME280;61343;53.694;9.988;2022-07-29T09:01:43;101634.69;;;20.45;55.88
73143;BME280;61343;53.694;9.988;2022-07-29T09:04:10;101643.09;;;20.44;54.87
73143;BME280;61343;53.694;9.988;2022-07-29T09:06:38;101640.16;;;20.50;56.02
73143;BME280;61343;53.694;9.988;2022-07-29T09:09:04;101639.59;;;20.75;55.61
73143;BME280;61343;53.694;9.988;2022-07-29T09:11:32;101640.84;;;20.99;55.04
73143;BME280;61343;53.694;9.988;2022-07-29T09:13:58;101639.38;;;21.19;54.09
73143;BME280;61343;53.694;9.988;2022-07-29T09:16:23;101629.63;;;21.23;53.45
73143;BME280;61343;53.694;9.988;2022-07-29T09:18:48;101637.00;;;21.27;52.38
73143;BME280;61343;53.694;9.988;2022-07-29T09:21:16;101638.91;;;21.32;52.39
73143;BME280;61343;53.694;9.988;2022-07-29T09:24:10;101635.22;;;21.53;52.39
73143;BME280;61343;53.694;9.988;2022-07-29T09:26:39;101629.63;;;21.75;51.26
73143;BME280;61343;53.694;9.988;2022-07-29T09:29:09;101634.41;;;22.14;50.75
73143;BME280;61343;53.694;9.988;2022-07-29T09:31:38;101632.22;;;22.01;50.26
73143;BME280;61343;53.694;9.988;2022-07-29T09:34:04;101627.66;;;21.65;50.26
73143;BME280;61343;53.694;9.988;2022-07-29T09:36:30;101628.81;;;21.79;50.86
73143;BME280;61343;53.694;9.988;2022-07-29T09:39:00;101613.72;;;22.13;50.01
73143;BME280;61343;53.694;9.988;2022-07-29T09:41:26;101616.69;;;22.12;48.91
73143;BME280;61343;53.694;9.988;2022-07-29T09:43:59;101619.16;;;22.23;48.52
73143;BME280;61343;53.694;9.988;2022-07-29T09:46:25;101613.47;;;22.20;46.55
73143;BME280;61343;53.694;9.988;2022-07-29T09:49:11;101615.38;;;22.45;47.77
73143;BME280;61343;53.694;9.988;2022-07-29T09:51:38;101606.41;;;22.39;49.14
73143;BME280;61343;53.694;9.988;2022-07-29T09:54:24;101614.06;;;22.52;49.01
73143;BME280;61343;53.694;9.988;2022-07-29T09:56:51;101616.78;;;22.57;47.28
73143;BME280;61343;53.694;9.988;2022-07-29T09:59:17;101616.97;;;22.15;48.41
73143;BME280;61343;53.694;9.988;2022-07-29T10:01:42;101623.78;;;22.13;47.25
73143;BME280;61343;53.694;9.988;2022-07-29T10:04:08;101623.75;;;22.03;47.17
73143;BME280;61343;53.694;9.988;2022-07-29T10:06:33;101628.94;;;21.99;48.16
73143;BME280;61343;53.694;9.988;2022-07-29T10:09:09;101625.22;;;22.41;47.36
73143;BME280;61343;53.694;9.988;2022-07-29T10:11:35;101621.44;;;22.87;46.72
73143;BME280;61343;53.694;9.988;2022-07-29T10:14:02;101621.41;;;23.07;46.79
73143;BME280;61343;53.694;9.988;2022-07-29T10:16:28;101623.56;;;23.41;46.02
73143;BME280;61343;53.694;9.988;2022-07-29T10:18:58;101614.78;;;23.54;45.70
73143;BME280;61343;53.694;9.988;2022-07-29T10:21:27;101616.38;;;23.60;45.72
73143;BME280;61343;53.694;9.988;2022-07-29T10:23:53;101616.44;;;23.34;45.27
73143;BME280;61343;53.694;9.988;2022-07-29T10:26:19;101610.44;;;23.38;45.20
73143;BME280;61343;53.694;9.988;2022-07-29T10:28:44;101602.50;;;23.51;45.65
73143;BME280;61343;53.694;9.988;2022-07-29T10:32:02;101598.88;;;23.66;44.95
73143;BME280;61343;53.694;9.988;2022-07-29T10:36:59;101596.78;;;24.12;43.88
73143;BME280;61343;53.694;9.988;2022-07-29T10:39:56;101595.38;;;24.09;41.74
73143;BME280;61343;53.694;9.988;2022-07-29T10:42:27;101595.66;;;23.54;42.53
73143;BME280;61343;53.694;9.988;2022-07-29T10:44:54;101590.25;;;23.33;43.64
73143;BME280;61343;53.694;9.988;2022-07-29T10:47:25;101596.25;;;23.30;43.50
73143;BME280;61343;53.694;9.988;2022-07-29T10:50:05;101592.69;;;23.30;44.27
73143;BME280;61343;53.694;9.988;2022-07-29T10:55:50;101590.88;;;22.95;43.68
73143;BME280;61343;53.694;9.988;2022-07-29T10:58:18;101587.88;;;23.02;43.73
73143;BME280;61343;53.694;9.988;2022-07-29T11:00:49;101593.31;;;23.07;44.19
73143;BME280;61343;53.694;9.988;2022-07-29T11:03:46;101590.31;;;23.13;42.77
73143;BME280;61343;53.694;9.988;2022-07-29T11:06:13;101589.75;;;23.16;42.46
73143;BME280;61343;53.694;9.988;2022-07-29T11:08:38;101589.75;;;23.16;42.31
73143;BME280;61343;53.694;9.988;2022-07-29T11:13:49;101590.31;;;23.13;43.10
73143;BME280;61343;53.694;9.988;2022-07-29T11:16:16;101597.13;;;23.11;43.99
73143;BME280;61343;53.694;9.988;2022-07-29T11:21:44;101594.38;;;23.16;42.90
73143;BME280;61343;53.694;9.988;2022-07-29T11:24:32;101590.03;;;23.10;43.33
73143;BME280;61343;53.694;9.988;2022-07-29T11:27:08;101590.31;;;23.03;43.30
73143;BME280;61343;53.694;9.988;2022-07-29T11:29:47;101591.94;;;23.04;43.57
73143;BME280;61343;53.694;9.988;2022-07-29T11:32:14;101594.44;;;22.96;43.27
73143;BME280;61343;53.694;9.988;2022-07-29T11:34:41;101592.81;;;22.85;43.92
73143;BME280;61343;53.694;9.988;2022-07-29T11:39:37;101581.03;;;23.14;44.55
73143;BME280;61343;53.694;9.988;2022-07-29T11:44:54;101573.09;;;23.23;44.00
73143;BME280;61343;53.694;9.988;2022-07-29T11:47:24;101573.06;;;23.28;45.15
73143;BME280;61343;53.694;9.988;2022-07-29T11:49:53;101574.38;;;23.56;43.87
73143;BME280;61343;53.694;9.988;2022-07-29T11:52:19;101572.59;;;23.80;44.89
73143;BME280;61343;53.694;9.988;2022-07-29T11:54:47;101567.25;;;24.04;43.08
73143;BME280;61343;53.694;9.988;2022-07-29T11:57:15;101571.06;;;24.13;42.19
73143;BME280;61343;53.694;9.988;2022-07-29T11:59:42;101561.59;;;23.95;42.40
73143;BME280;61343;53.694;9.988;2022-07-29T12:02:08;101562.56;;;24.09;41.64
73143;BME280;61343;53.694;9.988;2022-07-29T12:04:34;101550.53;;;24.20;41.73
73143;BME280;61343;53.694;9.988;2022-07-29T12:07:12;101554.19;;;24.39;40.27
73143;BME280;61343;53.694;9.988;2022-07-29T12:09:38;101547.97;;;24.63;39.59
73143;BME280;61343;53.694;9.988;2022-07-29T12:12:03;101547.13;;;24.67;40.57
73143;BME280;61343;53.694;9.988;2022-07-29T12:14:30;101555.09;;;24.64;41.24
73143;BME280;61343;53.694;9.988;2022-07-29T12:16:57;101552.91;;;24.32;41.15
73143;BME280;61343;53.694;9.988;2022-07-29T12:19:22;101546.78;;;24.11;41.47
73143;BME280;61343;53.694;9.988;2022-07-29T12:21:50;101546.78;;;24.11;42.25
73143;BME280;61343;53.694;9.988;2022-07-29T12:24:16;101542.75;;;24.37;41.75
73143;BME280;61343;53.694;9.988;2022-07-29T12:26:51;101543.44;;;24.48;41.83
73143;BME280;61343;53.694;9.988;2022-07-29T12:29:17;101538.22;;;24.52;41.47
73143;BME280;61343;53.694;9.988;2022-07-29T12:31:43;101540.19;;;24.07;42.20
73143;BME280;61343;53.694;9.988;2022-07-29T12:34:13;101543.53;;;23.99;42.63
73143;BME280;61343;53.694;9.988;2022-07-29T12:36:41;101547.31;;;24.08;42.60
73143;BME280;61343;53.694;9.988;2022-07-29T12:39:07;101554.66;;;24.13;43.23
73143;BME280;61343;53.694;9.988;2022-07-29T12:41:34;101543.34;;;24.29;43.52
73143;BME280;61343;53.694;9.988;2022-07-29T12:43:59;101542.16;;;24.40;43.30
73143;BME280;61343;53.694;9.988;2022-07-29T12:46:24;101540.41;;;24.83;42.92
73143;BME280;61343;53.694;9.988;2022-07-29T12:48:51;101537.53;;;24.98;42.53
73143;BME280;61343;53.694;9.988;2022-07-29T12:51:28;101542.38;;;24.83;42.15
73143;BME280;61343;53.694;9.988;2022-07-29T12:54:11;101539.56;;;24.88;42.98
73143;BME280;61343;53.694;9.988;2022-07-29T12:56:39;101545.72;;;24.98;42.78
73143;BME280;61343;53.694;9.988;2022-07-29T12:59:19;101548.66;;;25.31;42.12
73143;BME280;61343;53.694;9.988;2022-07-29T13:01:46;101532.94;;;25.41;42.04
73143;BME280;61343;53.694;9.988;2022-07-29T13:04:24;101537.47;;;25.51;42.64
73143;BME280;61343;53.694;9.988;2022-07-29T13:06:58;101529.44;;;25.78;41.40
73143;BME280;61343;53.694;9.988;2022-07-29T13:09:36;101538.69;;;25.82;42.10
73143;BME280;61343;53.694;9.988;2022-07-29T13:12:06;101527.72;;;25.21;42.84
73143;BME280;61343;53.694;9.988;2022-07-29T13:14:37;101534.47;;;25.71;42.92
73143;BME280;61343;53.694;9.988;2022-07-29T13:17:11;101525.47;;;25.23;42.83
73143;BME280;61343;53.694;9.988;2022-07-29T13:19:46;101523.50;;;25.29;42.99
73143;BME280;61343;53.694;9.988;2022-07-29T13:22:16;101524.16;;;24.97;43.17
73143;BME280;61343;53.694;9.988;2022-07-29T13:24:56;101524.06;;;25.26;42.87